Airfield :
LOGIN :

Register | Disclaimer

   EN    FR    IT 

 










Legend :    VFR   Marginal VFR   IFR   Intensive IFR   Very Intensive IFR
Visi :
Ceiling :
>= 8 km
>= 3000ft
5 to 8 km
1000 to 3000 ft
1500m to 5 km
500 to 1000 ft
800 to 1500m
200 to 500 ft
< 800m
< 200 ft
Symbols :   Thunderstorms  Fog  Heavy snow  Heavy precipitations  Wind > 20 kt
SIGMETs :     Misc.  Thunderstorms  Icing  Turbulence  Mountain Waves  Volcanic Ashes






- Airport Elevation : 485 ft
- IATA code : QSA


LELL - Sabadell

CURRENT METAR :
  • 301330Z 23005KT 160V280 9999 FEW020 SCT031 14/06 Q1016

EXPIRED METARs :
  • 301300Z 22004KT 190V330 9999 FEW020 SCT035 14/06 Q1016
  • 301230Z 19006KT 150V240 9999 SCT035 14/05 Q1016
  • 301200Z 24004KT 9999 FEW035 14/05 Q1016
  • 301130Z 13002KT 9999 FEW035 14/06 Q1017
  • 301100Z 14004KT 100V170 9999 FEW015 SCT035 12/05 Q1017

TAF TAF LELL
Valid from the 30 at 09:00 until the 01 at 09:00 UTC


300800Z 3009/0109 VRB04KT 9999 SCT020 TX15/3013Z TN03/0106Z
PROB30
TEMPO 3012/3018 25010KT



MET'MAP, your aeronautical weather chart ! - Copyright ORBIFLY December 2007 - Disclaimer

ORBIFLY MET'MAP TEAM :

Programming & Development : Alexandra Zaïnal
Original concept : Baudouin d'Aumeries
Technical & hardware support : Manuel Goepfert
Assistance : Marc-Olivier Méhu




SOURCES & CREDITS :

   NOAA